createdAt,value
2022-07-29T00:00:02.138Z,0.98
2022-07-29T00:00:14.769Z,1.00
2022-07-29T00:00:26.564Z,0.90
2022-07-29T00:00:38.141Z,0.95
2022-07-29T00:00:49.660Z,0.80
2022-07-29T00:01:01.255Z,0.77
2022-07-29T00:01:19.615Z,0.70
2022-07-29T00:01:31.370Z,0.70
2022-07-29T00:01:44.244Z,0.80
2022-07-29T00:01:55.814Z,0.80
2022-07-29T00:02:07.340Z,0.70
2022-07-29T00:02:19.052Z,0.82
2022-07-29T00:02:30.593Z,1.10
2022-07-29T00:02:42.292Z,1.25
2022-07-29T00:02:53.888Z,1.20
2022-07-29T00:03:05.815Z,0.82
2022-07-29T00:03:17.501Z,0.90
2022-07-29T00:03:29.052Z,1.00
2022-07-29T00:03:40.594Z,0.90
2022-07-29T00:03:52.232Z,0.88
2022-07-29T00:04:04.037Z,0.70
2022-07-29T00:04:15.983Z,0.65
2022-07-29T00:04:27.922Z,0.80
2022-07-29T00:04:39.543Z,0.88
2022-07-29T00:04:51.120Z,0.85
2022-07-29T00:05:03.523Z,0.80
2022-07-29T00:05:15.563Z,0.77
2022-07-29T00:05:27.144Z,0.75
2022-07-29T00:05:42.460Z,0.90
2022-07-29T00:05:54.064Z,0.93
2022-07-29T00:06:05.693Z,0.90
2022-07-29T00:06:17.281Z,0.82
2022-07-29T00:06:31.263Z,0.70
2022-07-29T00:06:42.919Z,0.77
2022-07-29T00:06:54.422Z,0.80
2022-07-29T00:07:05.956Z,0.93
2022-07-29T00:07:17.490Z,0.90
2022-07-29T00:07:29.141Z,0.90
2022-07-29T00:07:41.119Z,0.80
2022-07-29T00:07:52.621Z,0.80
2022-07-29T00:08:06.327Z,0.80
2022-07-29T00:08:19.885Z,0.80
2022-07-29T00:08:31.470Z,0.90
2022-07-29T00:08:43.064Z,0.85
2022-07-29T00:08:54.605Z,0.90
2022-07-29T00:09:06.411Z,0.90
2022-07-29T00:09:17.975Z,0.85
2022-07-29T00:09:29.474Z,0.90
2022-07-29T00:09:50.574Z,1.00
2022-07-29T00:10:04.941Z,1.00
2022-07-29T00:10:16.504Z,0.70
2022-07-29T00:10:28.778Z,0.80
2022-07-29T00:10:40.284Z,0.85
2022-07-29T00:10:51.762Z,0.80
2022-07-29T00:11:03.410Z,0.80
2022-07-29T00:11:14.926Z,0.82
2022-07-29T00:11:26.370Z,0.88
2022-07-29T00:11:37.854Z,1.00
2022-07-29T00:11:49.541Z,0.90
2022-07-29T00:12:02.551Z,0.75
2022-07-29T00:12:14.032Z,0.70
2022-07-29T00:12:26.987Z,0.75
2022-07-29T00:12:38.527Z,0.88
2022-07-29T00:12:50.506Z,0.93
2022-07-29T00:13:02.549Z,1.13
2022-07-29T00:13:14.044Z,1.15
2022-07-29T00:13:32.171Z,1.00
2022-07-29T00:13:47.711Z,0.82
2022-07-29T00:14:03.302Z,0.70
2022-07-29T00:14:14.992Z,0.77
2022-07-29T00:14:26.985Z,0.85
2022-07-29T00:14:38.468Z,0.80
2022-07-29T00:14:50.046Z,0.80
2022-07-29T00:15:01.537Z,0.93
2022-07-29T00:15:13.242Z,1.00
2022-07-29T00:15:24.785Z,0.90
2022-07-29T00:15:36.326Z,0.80
2022-07-29T00:15:47.749Z,0.80
2022-07-29T00:16:04.558Z,0.77
2022-07-29T00:16:16.558Z,0.80
2022-07-29T00:16:28.182Z,0.80
2022-07-29T00:16:39.693Z,0.70
2022-07-29T00:16:51.247Z,0.70
2022-07-29T00:17:02.737Z,0.82
2022-07-29T00:17:14.367Z,0.90
2022-07-29T00:17:30.653Z,0.80
2022-07-29T00:17:42.206Z,0.60
2022-07-29T00:17:53.864Z,0.60
2022-07-29T00:18:05.732Z,0.80
2022-07-29T00:18:17.352Z,1.00
2022-07-29T00:18:28.852Z,0.82
2022-07-29T00:18:41.811Z,1.00
2022-07-29T00:18:53.224Z,1.00
2022-07-29T00:19:05.316Z,0.90
2022-07-29T00:19:19.349Z,0.80
2022-07-29T00:19:30.742Z,0.70
2022-07-29T00:19:45.698Z,0.70
2022-07-29T00:19:57.184Z,0.75
2022-07-29T00:20:09.579Z,0.82
2022-07-29T00:20:21.217Z,0.80
2022-07-29T00:20:32.627Z,0.80
2022-07-29T00:20:44.120Z,0.90
2022-07-29T00:20:55.623Z,1.00
2022-07-29T00:21:07.058Z,0.95
2022-07-29T00:21:18.512Z,0.90
2022-07-29T00:21:31.229Z,0.80
2022-07-29T00:21:42.767Z,1.00
2022-07-29T00:21:54.164Z,1.00
2022-07-29T00:22:05.595Z,0.90
2022-07-29T00:22:16.963Z,0.90
2022-07-29T00:22:28.349Z,0.80
2022-07-29T00:22:40.322Z,0.80
2022-07-29T00:22:51.763Z,1.00
2022-07-29T00:23:07.184Z,1.13
2022-07-29T00:23:24.910Z,1.00
2022-07-29T00:23:36.999Z,0.80
2022-07-29T00:23:48.468Z,0.82
2022-07-29T00:23:59.951Z,0.80
2022-07-29T00:24:11.568Z,0.85
2022-07-29T00:24:23.101Z,1.02
2022-07-29T00:24:35.884Z,1.00
2022-07-29T00:24:50.038Z,0.80
2022-07-29T00:25:01.493Z,0.80
2022-07-29T00:25:14.010Z,0.90
2022-07-29T00:25:26.419Z,0.85
2022-07-29T00:25:38.061Z,0.75
2022-07-29T00:25:49.445Z,0.85
2022-07-29T00:26:00.813Z,0.90
2022-07-29T00:26:12.246Z,0.95
2022-07-29T00:26:23.791Z,0.80
2022-07-29T00:26:35.301Z,0.77
2022-07-29T00:26:46.728Z,0.80
2022-07-29T00:26:58.214Z,0.77
2022-07-29T00:27:10.756Z,0.75
2022-07-29T00:27:22.409Z,0.82
2022-07-29T00:27:33.907Z,1.00
2022-07-29T00:27:45.508Z,0.90
2022-07-29T00:27:56.923Z,0.90
2022-07-29T00:28:08.328Z,1.00
2022-07-29T00:28:19.709Z,1.00
2022-07-29T00:28:31.135Z,1.00
2022-07-29T00:28:42.529Z,0.93
2022-07-29T00:29:06.394Z,0.90
2022-07-29T00:29:34.371Z,1.20
2022-07-29T00:29:46.423Z,1.10
2022-07-29T00:29:57.872Z,1.20
2022-07-29T00:30:09.479Z,1.10
2022-07-29T00:30:21.023Z,1.10
2022-07-29T00:30:32.787Z,0.95
2022-07-29T00:30:44.264Z,1.10
2022-07-29T00:30:56.757Z,1.10
2022-07-29T00:31:08.279Z,1.15
2022-07-29T00:31:20.985Z,0.90
2022-07-29T00:31:32.594Z,0.80
2022-07-29T00:31:44.161Z,0.80
2022-07-29T00:31:55.694Z,0.88
2022-07-29T00:32:07.491Z,0.93
2022-07-29T00:32:18.889Z,1.00
2022-07-29T00:32:30.299Z,1.10
2022-07-29T00:32:41.877Z,1.00
2022-07-29T00:32:53.291Z,0.90
2022-07-29T00:33:08.924Z,0.93
2022-07-29T00:33:22.072Z,1.02
2022-07-29T00:33:33.503Z,0.90
2022-07-29T00:33:44.904Z,0.90
2022-07-29T00:33:56.834Z,0.90
2022-07-29T00:34:08.240Z,0.90
2022-07-29T00:34:19.716Z,0.70
2022-07-29T00:34:32.129Z,0.80
2022-07-29T00:34:43.939Z,0.90
2022-07-29T00:34:55.317Z,0.88
2022-07-29T00:35:07.342Z,0.80
2022-07-29T00:35:18.977Z,0.80
2022-07-29T00:35:30.474Z,0.77
2022-07-29T00:35:41.883Z,0.95
2022-07-29T00:35:53.292Z,0.93
2022-07-29T00:36:06.500Z,0.90
2022-07-29T00:36:17.905Z,0.70
2022-07-29T00:36:29.653Z,0.63
2022-07-29T00:36:41.078Z,0.70
2022-07-29T00:36:52.483Z,0.90
2022-07-29T00:37:04.036Z,0.80
2022-07-29T00:37:16.499Z,0.65
2022-07-29T00:37:27.920Z,0.85
2022-07-29T00:37:40.816Z,0.95
2022-07-29T00:37:52.442Z,1.23
2022-07-29T00:38:03.850Z,1.05
2022-07-29T00:38:18.867Z,0.85
2022-07-29T00:38:30.297Z,0.80
2022-07-29T00:38:41.750Z,0.70
2022-07-29T00:38:54.082Z,0.70
2022-07-29T00:39:05.455Z,0.80
2022-07-29T00:39:16.852Z,0.80
2022-07-29T00:39:28.338Z,1.00
2022-07-29T00:39:40.447Z,0.90
2022-07-29T00:39:52.582Z,0.88
2022-07-29T00:40:04.643Z,0.80
2022-07-29T00:40:16.131Z,0.90
2022-07-29T00:40:28.779Z,0.85
2022-07-29T00:40:44.369Z,0.80
2022-07-29T00:40:56.173Z,0.73
2022-07-29T00:41:08.590Z,0.88
2022-07-29T00:41:20.413Z,1.00
2022-07-29T00:41:31.945Z,0.90
2022-07-29T00:41:45.320Z,0.90
2022-07-29T00:41:56.740Z,0.95
2022-07-29T00:42:08.527Z,0.90
2022-07-29T00:42:19.984Z,0.80
2022-07-29T00:42:31.763Z,0.80
2022-07-29T00:42:47.969Z,0.90
2022-07-29T00:42:59.481Z,0.93
2022-07-29T00:43:13.691Z,0.90
2022-07-29T00:43:26.127Z,0.82
2022-07-29T00:43:37.984Z,0.90
2022-07-29T00:43:49.435Z,0.80
2022-07-29T00:44:00.825Z,0.80
2022-07-29T00:44:12.309Z,0.88
2022-07-29T00:44:23.853Z,0.85
2022-07-29T00:44:39.659Z,0.80
2022-07-29T00:44:51.532Z,0.80
2022-07-29T00:45:03.151Z,0.70
2022-07-29T00:45:15.615Z,0.70
2022-07-29T00:45:27.088Z,0.73
2022-07-29T00:45:38.518Z,0.82
2022-07-29T00:45:49.953Z,0.98
2022-07-29T00:46:01.374Z,1.05
2022-07-29T00:46:13.039Z,1.00
2022-07-29T00:46:24.515Z,0.93
2022-07-29T00:46:36.057Z,0.95
2022-07-29T00:46:47.550Z,0.85
2022-07-29T00:46:59.286Z,0.90
2022-07-29T00:47:12.083Z,0.90
2022-07-29T00:47:23.559Z,1.20
2022-07-29T00:47:34.955Z,1.20
2022-07-29T00:47:47.580Z,1.10
2022-07-29T00:47:59.269Z,1.10
2022-07-29T00:48:11.111Z,1.15
2022-07-29T00:48:22.539Z,1.00
2022-07-29T00:48:33.985Z,1.08
2022-07-29T00:48:45.429Z,1.30
2022-07-29T00:48:57.008Z,1.25
2022-07-29T00:49:09.223Z,1.00
2022-07-29T00:49:20.774Z,1.00
2022-07-29T00:49:32.286Z,1.00
2022-07-29T00:49:44.373Z,1.10
2022-07-29T00:49:56.935Z,1.10
2022-07-29T00:50:10.208Z,1.00
2022-07-29T00:50:21.667Z,0.90
2022-07-29T00:50:33.779Z,0.80
2022-07-29T00:50:45.288Z,0.90
2022-07-29T00:50:58.915Z,1.10
2022-07-29T00:51:10.327Z,1.10
2022-07-29T00:51:21.725Z,1.02
2022-07-29T00:51:33.270Z,1.23
2022-07-29T00:51:46.412Z,1.20
2022-07-29T00:51:58.046Z,1.23
2022-07-29T00:52:11.299Z,1.23
2022-07-29T00:52:22.830Z,1.20
2022-07-29T00:52:36.434Z,1.17
2022-07-29T00:52:48.432Z,1.10
2022-07-29T00:53:00.382Z,1.00
2022-07-29T00:53:13.292Z,1.00
2022-07-29T00:53:25.680Z,1.05
2022-07-29T00:53:38.943Z,1.15
2022-07-29T00:53:50.405Z,1.10
2022-07-29T00:54:03.125Z,1.10
2022-07-29T00:54:15.459Z,1.00
2022-07-29T00:54:27.129Z,0.93
2022-07-29T00:54:43.903Z,1.10
2022-07-29T00:54:57.303Z,1.00
2022-07-29T00:55:11.473Z,0.93
2022-07-29T00:55:23.078Z,0.98
2022-07-29T00:55:34.967Z,1.00
2022-07-29T00:55:46.498Z,1.00
2022-07-29T00:55:59.110Z,1.02
2022-07-29T00:56:10.540Z,1.00
2022-07-29T00:56:22.071Z,1.00
2022-07-29T00:56:36.458Z,0.95
2022-07-29T00:56:47.944Z,0.93
2022-07-29T00:57:00.114Z,0.90
2022-07-29T00:57:12.202Z,0.90
2022-07-29T00:57:23.802Z,0.90
2022-07-29T00:57:36.369Z,1.00
2022-07-29T00:57:48.003Z,0.90
2022-07-29T00:57:59.930Z,0.90
2022-07-29T00:58:14.148Z,1.02
2022-07-29T00:58:27.450Z,1.15
2022-07-29T00:58:39.822Z,1.02
2022-07-29T00:58:52.413Z,0.93
2022-07-29T00:59:03.833Z,1.00
2022-07-29T00:59:15.321Z,1.10
2022-07-29T00:59:35.109Z,1.10
2022-07-29T00:59:46.881Z,1.15
2022-07-29T00:59:58.403Z,1.23
2022-07-29T01:00:16.980Z,1.30
2022-07-29T01:00:29.854Z,1.10
2022-07-29T01:00:41.369Z,0.90
2022-07-29T01:00:53.682Z,0.90
2022-07-29T01:01:05.204Z,0.93
2022-07-29T01:01:16.735Z,0.90
2022-07-29T01:01:28.543Z,1.00
2022-07-29T01:01:40.106Z,1.00
2022-07-29T01:01:51.625Z,0.95
2022-07-29T01:02:04.410Z,0.90
2022-07-29T01:02:15.950Z,1.00
2022-07-29T01:02:27.555Z,0.93
2022-07-29T01:02:39.182Z,0.85
2022-07-29T01:02:51.082Z,0.70
2022-07-29T01:03:02.496Z,0.90
2022-07-29T01:03:16.648Z,1.05
2022-07-29T01:03:28.065Z,1.13
2022-07-29T01:03:39.483Z,1.00
2022-07-29T01:03:51.488Z,1.10
2022-07-29T01:04:03.018Z,1.10
2022-07-29T01:04:14.667Z,1.02
2022-07-29T01:04:28.016Z,0.90
2022-07-29T01:04:40.221Z,1.08
2022-07-29T01:04:52.197Z,1.10
2022-07-29T01:05:05.965Z,1.02
2022-07-29T01:05:19.607Z,1.17
2022-07-29T01:05:50.133Z,0.93
2022-07-29T01:06:02.694Z,1.10
2022-07-29T01:06:14.607Z,1.10
2022-07-29T01:06:26.310Z,1.08
2022-07-29T01:06:38.299Z,0.90
2022-07-29T01:06:50.265Z,0.80
2022-07-29T01:07:03.026Z,0.70
2022-07-29T01:07:14.575Z,0.90
2022-07-29T01:07:28.427Z,0.98
2022-07-29T01:07:40.419Z,1.10
2022-07-29T01:07:54.941Z,1.15
2022-07-29T01:08:07.350Z,1.25
2022-07-29T01:08:21.201Z,1.25
2022-07-29T01:08:33.898Z,1.05
2022-07-29T01:08:47.963Z,1.02
2022-07-29T01:09:00.115Z,1.25
2022-07-29T01:09:11.909Z,1.23
2022-07-29T01:09:45.523Z,1.15
2022-07-29T01:09:55.926Z,1.25
2022-07-29T01:10:10.477Z,1.20
2022-07-29T01:10:23.692Z,1.10
2022-07-29T01:10:38.797Z,1.10
2022-07-29T01:10:51.673Z,1.20
2022-07-29T01:11:03.753Z,1.00
2022-07-29T01:11:17.005Z,1.08
2022-07-29T01:11:28.435Z,1.00
2022-07-29T01:11:40.528Z,0.90
2022-07-29T01:11:52.446Z,0.73
2022-07-29T01:12:05.592Z,0.82
2022-07-29T01:12:25.642Z,1.00
2022-07-29T01:12:38.712Z,1.00
2022-07-29T01:12:52.551Z,0.90
2022-07-29T01:13:04.123Z,0.98
2022-07-29T01:13:20.877Z,1.00
2022-07-29T01:13:33.358Z,1.00
2022-07-29T01:13:46.811Z,1.00
2022-07-29T01:13:58.459Z,1.05
2022-07-29T01:14:10.634Z,0.93
2022-07-29T01:14:22.497Z,0.85
2022-07-29T01:14:35.342Z,0.82
2022-07-29T01:14:48.407Z,0.88
2022-07-29T01:15:01.492Z,1.10
2022-07-29T01:15:13.410Z,1.20
2022-07-29T01:15:25.251Z,1.05
2022-07-29T01:15:49.610Z,1.00
2022-07-29T01:16:08.649Z,1.00
2022-07-29T01:16:32.346Z,0.73
2022-07-29T01:16:59.573Z,0.98
2022-07-29T01:17:14.415Z,1.00
2022-07-29T01:17:33.095Z,1.00
2022-07-29T01:17:53.378Z,0.90
2022-07-29T01:18:12.570Z,0.90
2022-07-29T01:18:34.839Z,1.00
2022-07-29T01:18:50.563Z,0.80
2022-07-29T01:19:13.821Z,0.70
2022-07-29T01:19:53.701Z,0.98
2022-07-29T01:20:13.539Z,0.90
2022-07-29T01:21:18.789Z,0.95
2022-07-29T01:21:48.746Z,0.98
2022-07-29T01:22:13.760Z,0.98
2022-07-29T01:22:40.107Z,0.90
2022-07-29T01:23:14.819Z,0.90
2022-07-29T01:23:41.212Z,1.00
2022-07-29T01:24:04.298Z,1.08
2022-07-29T01:24:34.743Z,1.40
2022-07-29T01:24:55.105Z,1.20
2022-07-29T01:25:16.034Z,1.10
2022-07-29T01:25:27.380Z,1.35
2022-07-29T01:25:47.106Z,1.23
2022-07-29T01:26:32.417Z,1.05
2022-07-29T01:26:44.168Z,1.00
2022-07-29T01:27:05.587Z,0.90
2022-07-29T01:27:50.051Z,1.05
2022-07-29T01:28:04.424Z,1.00
2022-07-29T01:28:34.787Z,1.00
2022-07-29T01:29:06.107Z,1.00
2022-07-29T01:29:36.098Z,1.02
2022-07-29T01:29:56.189Z,0.98
2022-07-29T01:30:09.862Z,1.23
2022-07-29T01:30:25.735Z,1.25
2022-07-29T01:30:39.692Z,1.08
2022-07-29T01:30:52.776Z,1.08
2022-07-29T01:31:07.197Z,1.10
2022-07-29T01:31:40.302Z,1.10
2022-07-29T01:32:09.552Z,1.30
2022-07-29T01:32:41.872Z,1.33
2022-07-29T01:32:59.793Z,1.20
2022-07-29T01:33:14.707Z,1.35
2022-07-29T01:33:27.674Z,1.40
2022-07-29T01:33:44.269Z,1.38
2022-07-29T01:33:59.683Z,1.38
2022-07-29T01:34:16.790Z,1.10
2022-07-29T01:34:31.782Z,1.05
2022-07-29T01:34:57.728Z,1.17
2022-07-29T01:35:12.226Z,1.43
2022-07-29T01:35:48.546Z,1.40
2022-07-29T01:36:03.766Z,0.98
2022-07-29T01:36:20.015Z,1.20
2022-07-29T01:37:10.391Z,1.20
2022-07-29T01:37:30.593Z,0.98
2022-07-29T01:37:49.516Z,1.30
2022-07-29T01:38:13.622Z,1.13
2022-07-29T01:38:28.952Z,1.27
2022-07-29T01:38:42.707Z,1.30
2022-07-29T01:39:17.773Z,1.23
2022-07-29T01:39:35.818Z,1.27
2022-07-29T01:39:49.912Z,1.25
2022-07-29T01:40:04.628Z,1.08
2022-07-29T01:40:23.124Z,1.00
2022-07-29T01:40:41.837Z,1.00
2022-07-29T01:41:06.235Z,1.15
2022-07-29T01:41:20.337Z,1.00
2022-07-29T01:41:35.168Z,1.10
2022-07-29T01:42:13.548Z,1.00
2022-07-29T01:42:31.365Z,1.10
2022-07-29T01:42:45.830Z,1.00
2022-07-29T01:43:01.075Z,1.00
2022-07-29T01:43:18.137Z,1.00
2022-07-29T01:44:01.651Z,1.08
2022-07-29T01:44:19.739Z,1.05
2022-07-29T01:44:40.611Z,1.30
2022-07-29T01:44:52.019Z,1.33
2022-07-29T01:45:17.911Z,1.40
2022-07-29T01:45:35.301Z,1.15
2022-07-29T01:46:10.156Z,1.10
2022-07-29T01:46:39.058Z,1.20
2022-07-29T01:46:56.939Z,0.85
2022-07-29T01:47:26.429Z,0.93
2022-07-29T01:48:03.014Z,1.00
2022-07-29T01:48:14.382Z,1.00
2022-07-29T01:48:35.930Z,0.98
2022-07-29T01:48:58.434Z,1.08
2022-07-29T01:49:15.367Z,1.08
2022-07-29T01:49:30.760Z,1.10
2022-07-29T01:49:47.042Z,1.13
2022-07-29T01:50:01.090Z,1.08
2022-07-29T01:50:15.645Z,1.10
2022-07-29T01:50:41.102Z,1.10
2022-07-29T01:51:03.316Z,1.00
2022-07-29T01:51:21.320Z,1.00
2022-07-29T01:51:36.983Z,0.90
2022-07-29T01:51:59.635Z,1.02
2022-07-29T01:52:19.881Z,1.13
2022-07-29T01:52:43.393Z,1.05
2022-07-29T01:53:01.855Z,1.20
2022-07-29T01:53:15.861Z,0.90
2022-07-29T01:53:47.486Z,0.98
2022-07-29T01:54:18.653Z,1.08
2022-07-29T01:54:41.351Z,1.30
2022-07-29T01:54:59.748Z,1.25
2022-07-29T01:55:16.429Z,1.48
2022-07-29T01:55:35.039Z,1.55
2022-07-29T01:55:47.918Z,1.60
2022-07-29T01:56:01.884Z,1.23
2022-07-29T01:56:14.676Z,0.93
2022-07-29T01:56:28.847Z,0.82
2022-07-29T01:56:40.514Z,1.13
2022-07-29T01:56:54.483Z,1.38
2022-07-29T01:57:08.999Z,1.35
2022-07-29T01:57:26.002Z,1.40
2022-07-29T01:57:40.270Z,1.30
2022-07-29T01:57:52.138Z,1.30
2022-07-29T01:58:06.136Z,1.40
2022-07-29T01:58:20.007Z,1.20
2022-07-29T01:58:33.688Z,1.23
2022-07-29T01:58:46.737Z,1.50
2022-07-29T01:58:59.555Z,1.40
2022-07-29T01:59:11.815Z,1.25
2022-07-29T01:59:24.694Z,1.02
2022-07-29T01:59:38.596Z,1.15
2022-07-29T01:59:52.428Z,1.20
2022-07-29T02:00:05.434Z,1.27
2022-07-29T02:00:18.252Z,1.38
2022-07-29T02:00:31.990Z,1.48
2022-07-29T02:00:46.789Z,1.50
2022-07-29T02:01:00.771Z,1.30
2022-07-29T02:01:14.355Z,1.33
2022-07-29T02:01:27.454Z,1.42
2022-07-29T02:01:41.541Z,1.33
2022-07-29T02:01:55.441Z,1.35
2022-07-29T02:02:09.749Z,1.40
2022-07-29T02:02:22.978Z,1.38
2022-07-29T02:02:36.674Z,1.33
2022-07-29T02:02:49.372Z,1.42
2022-07-29T02:03:06.385Z,1.40
2022-07-29T02:03:19.351Z,1.30
2022-07-29T02:03:33.354Z,1.20
2022-07-29T02:03:47.022Z,1.17
2022-07-29T02:04:02.602Z,1.10
2022-07-29T02:04:29.283Z,1.10
2022-07-29T02:04:43.849Z,1.00
2022-07-29T02:04:57.194Z,1.20
2022-07-29T02:05:13.204Z,1.38
2022-07-29T02:05:28.288Z,1.30
2022-07-29T02:05:43.299Z,1.20
2022-07-29T02:05:59.277Z,1.30
2022-07-29T02:06:13.369Z,1.40
2022-07-29T02:06:27.028Z,1.50
2022-07-29T02:06:41.655Z,1.60
2022-07-29T02:06:55.903Z,1.42
2022-07-29T02:07:10.045Z,1.42
2022-07-29T02:07:24.264Z,1.50
2022-07-29T02:07:37.673Z,1.30
2022-07-29T02:07:50.443Z,1.23
2022-07-29T02:08:06.437Z,1.30
2022-07-29T02:08:20.887Z,1.20
2022-07-29T02:08:34.109Z,1.42
2022-07-29T02:08:48.201Z,1.50
2022-07-29T02:09:01.202Z,1.33
2022-07-29T02:09:15.641Z,1.80
2022-07-29T02:09:27.704Z,1.92
2022-07-29T02:09:41.707Z,1.52
2022-07-29T02:09:55.703Z,1.05
2022-07-29T02:10:08.481Z,1.00
2022-07-29T02:10:26.018Z,1.20
2022-07-29T02:10:40.826Z,1.30
2022-07-29T02:10:54.486Z,1.33
2022-07-29T02:11:07.902Z,1.25
2022-07-29T02:11:19.584Z,1.30
2022-07-29T02:11:34.285Z,1.20
2022-07-29T02:11:50.440Z,1.30
2022-07-29T02:12:04.917Z,1.30
2022-07-29T02:12:18.947Z,1.30
2022-07-29T02:12:32.855Z,1.20
2022-07-29T02:12:50.873Z,1.30
2022-07-29T02:13:04.549Z,1.40
2022-07-29T02:13:19.719Z,1.27
2022-07-29T02:13:33.166Z,1.40
2022-07-29T02:13:46.106Z,1.45
2022-07-29T02:13:59.061Z,1.45
2022-07-29T02:14:14.081Z,1.40
2022-07-29T02:14:28.451Z,1.23
2022-07-29T02:14:46.465Z,1.23
2022-07-29T02:15:01.615Z,1.20
2022-07-29T02:15:14.860Z,1.02
2022-07-29T02:15:29.636Z,1.10
2022-07-29T02:15:43.730Z,1.10
2022-07-29T02:15:58.396Z,1.20
2022-07-29T02:16:11.461Z,1.17
2022-07-29T02:16:24.930Z,1.30
2022-07-29T02:16:39.021Z,1.30
2022-07-29T02:16:54.114Z,1.13
2022-07-29T02:17:06.363Z,1.00
2022-07-29T02:17:24.770Z,1.13
2022-07-29T02:17:52.830Z,1.10
2022-07-29T02:18:23.334Z,1.10
2022-07-29T02:18:38.285Z,1.20
2022-07-29T02:18:54.714Z,1.25
2022-07-29T02:19:09.087Z,1.40
2022-07-29T02:19:23.004Z,1.30
2022-07-29T02:19:35.331Z,1.20
2022-07-29T02:19:48.379Z,1.10
2022-07-29T02:20:02.953Z,1.08
2022-07-29T02:20:14.546Z,1.20
2022-07-29T02:20:27.200Z,1.30
2022-07-29T02:20:40.234Z,1.20
2022-07-29T02:20:55.190Z,1.08
2022-07-29T02:21:15.132Z,1.10
2022-07-29T02:21:28.799Z,1.02
2022-07-29T02:21:41.746Z,1.08
2022-07-29T02:21:56.606Z,1.20
2022-07-29T02:22:09.315Z,1.30
2022-07-29T02:22:21.967Z,1.20
2022-07-29T02:22:38.173Z,1.30
2022-07-29T02:22:50.750Z,1.20
2022-07-29T02:23:03.374Z,1.15
2022-07-29T02:23:19.758Z,1.30
2022-07-29T02:23:51.189Z,1.27
2022-07-29T02:24:05.571Z,1.10
2022-07-29T02:24:19.178Z,1.10
2022-07-29T02:24:31.376Z,1.10
2022-07-29T02:24:44.499Z,1.27
2022-07-29T02:24:56.742Z,1.48
2022-07-29T02:25:14.031Z,1.27
2022-07-29T02:25:37.202Z,1.30
2022-07-29T02:25:56.951Z,1.25
2022-07-29T02:26:10.209Z,1.38
2022-07-29T02:26:25.378Z,1.27
2022-07-29T02:26:38.855Z,1.23
2022-07-29T02:26:51.998Z,1.30
2022-07-29T02:27:04.761Z,1.25
2022-07-29T02:27:17.094Z,1.38
2022-07-29T02:27:29.915Z,1.38
2022-07-29T02:27:43.365Z,1.20
2022-07-29T02:27:56.498Z,1.13
2022-07-29T02:28:09.586Z,1.20
2022-07-29T02:28:23.658Z,1.30
2022-07-29T02:28:35.117Z,1.20
2022-07-29T02:28:48.199Z,1.25
2022-07-29T02:29:01.011Z,1.42
2022-07-29T02:29:17.968Z,1.37
2022-07-29T02:29:31.434Z,1.30
2022-07-29T02:29:44.062Z,1.33
2022-07-29T02:29:59.438Z,1.40
2022-07-29T02:30:12.092Z,1.40
2022-07-29T02:30:27.204Z,1.38
2022-07-29T02:30:41.717Z,1.38
2022-07-29T02:30:55.635Z,1.40
2022-07-29T02:31:08.394Z,1.38
2022-07-29T02:31:24.504Z,1.20
2022-07-29T02:31:36.838Z,1.15
2022-07-29T02:31:50.466Z,1.10
2022-07-29T02:32:03.451Z,1.00
2022-07-29T02:32:17.496Z,0.88
2022-07-29T02:32:30.153Z,1.00
2022-07-29T02:32:44.323Z,1.08
2022-07-29T02:33:00.768Z,1.17
2022-07-29T02:33:16.735Z,1.25
2022-07-29T02:33:31.432Z,1.30
2022-07-29T02:33:44.683Z,1.35
2022-07-29T02:33:57.483Z,1.63
2022-07-29T02:34:11.532Z,1.63
2022-07-29T02:34:24.310Z,1.60
2022-07-29T02:34:38.534Z,1.48
2022-07-29T02:34:51.178Z,1.27
2022-07-29T02:35:03.650Z,1.30
2022-07-29T02:35:16.765Z,1.30
2022-07-29T02:35:28.738Z,1.30
2022-07-29T02:35:48.906Z,1.30
2022-07-29T02:36:02.538Z,1.20
2022-07-29T02:36:15.483Z,1.15
2022-07-29T02:36:27.994Z,1.20
2022-07-29T02:36:40.479Z,1.30
2022-07-29T02:36:53.137Z,1.30
2022-07-29T02:37:06.319Z,1.40
2022-07-29T02:37:19.767Z,1.20
2022-07-29T02:37:32.861Z,1.10
2022-07-29T02:37:46.444Z,1.40
2022-07-29T02:37:58.467Z,1.63
2022-07-29T02:38:13.403Z,1.70
2022-07-29T02:38:28.416Z,1.50
2022-07-29T02:38:43.301Z,1.48
2022-07-29T02:38:57.450Z,1.23
2022-07-29T02:39:10.593Z,1.00
2022-07-29T02:39:23.882Z,1.13
2022-07-29T02:39:35.566Z,1.30
2022-07-29T02:39:49.551Z,1.25
2022-07-29T02:40:02.506Z,1.10
2022-07-29T02:40:16.181Z,1.00
2022-07-29T02:40:27.886Z,1.30
2022-07-29T02:40:42.893Z,1.38
2022-07-29T02:40:57.364Z,1.50
2022-07-29T02:41:13.002Z,1.40
2022-07-29T02:41:30.524Z,1.20
2022-07-29T02:41:55.747Z,1.15
2022-07-29T02:42:10.985Z,1.30
2022-07-29T02:42:25.131Z,1.35
2022-07-29T02:42:38.286Z,1.25
2022-07-29T02:42:50.575Z,1.13
2022-07-29T02:43:06.176Z,1.10
2022-07-29T02:43:20.126Z,1.48
2022-07-29T02:43:33.710Z,1.48
2022-07-29T02:43:48.691Z,1.38
2022-07-29T02:44:07.398Z,1.30
2022-07-29T02:44:21.539Z,1.17
2022-07-29T02:44:34.892Z,1.25
2022-07-29T02:44:46.570Z,1.13
2022-07-29T02:44:58.031Z,1.30
2022-07-29T02:45:10.977Z,1.20
2022-07-29T02:45:22.714Z,1.08
2022-07-29T02:45:34.553Z,1.02
2022-07-29T02:45:48.275Z,1.17
2022-07-29T02:46:06.856Z,1.27
2022-07-29T02:46:48.754Z,1.13
2022-07-29T02:47:23.601Z,1.50
2022-07-29T02:47:43.387Z,1.35
2022-07-29T02:47:58.515Z,1.10
2022-07-29T02:48:16.022Z,1.20
2022-07-29T02:48:36.052Z,1.40
2022-07-29T02:48:58.559Z,1.50
2022-07-29T02:49:15.992Z,1.25
2022-07-29T02:49:58.054Z,1.08
2022-07-29T02:50:20.922Z,1.08
2022-07-29T02:50:45.247Z,1.15
2022-07-29T02:51:06.427Z,1.45
2022-07-29T02:51:43.884Z,1.30
2022-07-29T02:52:02.419Z,1.10
2022-07-29T02:52:22.622Z,1.10
2022-07-29T02:53:06.630Z,1.25
2022-07-29T02:53:25.609Z,1.20
2022-07-29T02:53:39.210Z,1.17
2022-07-29T02:53:54.674Z,1.13
2022-07-29T02:54:10.270Z,1.20
2022-07-29T02:55:00.329Z,1.38
2022-07-29T02:55:18.969Z,1.10
2022-07-29T02:55:37.963Z,1.27
2022-07-29T02:56:00.600Z,1.40
2022-07-29T02:56:15.480Z,1.48
2022-07-29T02:56:29.769Z,1.40
2022-07-29T02:56:42.126Z,1.40
2022-07-29T02:56:56.243Z,1.30
2022-07-29T02:57:22.356Z,1.40
2022-07-29T02:57:54.372Z,1.25
2022-07-29T02:58:16.573Z,1.40
2022-07-29T02:58:33.205Z,1.40
2022-07-29T02:58:57.867Z,1.42
2022-07-29T02:59:12.452Z,1.55
2022-07-29T02:59:27.279Z,1.20
2022-07-29T02:59:44.066Z,1.00
2022-07-29T02:59:59.951Z,1.10
2022-07-29T03:00:12.327Z,1.35
2022-07-29T03:00:28.637Z,1.35
2022-07-29T03:00:41.815Z,1.25
2022-07-29T03:00:54.491Z,1.10
2022-07-29T03:01:16.834Z,1.20
2022-07-29T03:01:35.403Z,1.55
2022-07-29T03:01:47.923Z,1.77
2022-07-29T03:02:01.018Z,1.60
2022-07-29T03:02:14.675Z,1.38
2022-07-29T03:02:28.733Z,1.20
2022-07-29T03:02:46.451Z,1.30
2022-07-29T03:03:00.656Z,1.30
2022-07-29T03:03:14.234Z,1.27
2022-07-29T03:03:30.689Z,1.27
2022-07-29T03:03:45.507Z,1.40
2022-07-29T03:04:02.717Z,1.35
2022-07-29T03:04:16.906Z,1.35
2022-07-29T03:04:31.656Z,1.30
2022-07-29T03:04:44.873Z,1.10
2022-07-29T03:04:58.884Z,1.05
2022-07-29T03:05:18.257Z,1.25
2022-07-29T03:05:30.314Z,1.40
2022-07-29T03:05:42.264Z,1.23
2022-07-29T03:05:57.073Z,0.93
2022-07-29T03:06:09.750Z,0.90
2022-07-29T03:06:42.891Z,1.20
2022-07-29T03:06:54.722Z,1.10
2022-07-29T03:07:06.467Z,0.98
2022-07-29T03:07:20.270Z,0.93
2022-07-29T03:07:33.491Z,1.10
2022-07-29T03:07:50.374Z,1.20
2022-07-29T03:08:05.127Z,1.13
2022-07-29T03:08:17.177Z,1.35
2022-07-29T03:08:28.849Z,1.40
2022-07-29T03:08:40.818Z,1.15
2022-07-29T03:08:52.747Z,0.98
2022-07-29T03:09:07.867Z,1.00
2022-07-29T03:09:24.030Z,1.15
2022-07-29T03:09:37.111Z,1.20
2022-07-29T03:09:50.079Z,1.30
2022-07-29T03:10:03.551Z,1.30
2022-07-29T03:10:15.314Z,1.30
2022-07-29T03:10:28.001Z,1.20
2022-07-29T03:10:43.693Z,1.20
2022-07-29T03:10:56.507Z,1.20
2022-07-29T03:11:09.719Z,1.42
2022-07-29T03:11:21.851Z,1.50
2022-07-29T03:11:53.591Z,1.58
2022-07-29T03:12:06.187Z,1.35
2022-07-29T03:12:18.358Z,1.30
2022-07-29T03:12:30.382Z,1.20
2022-07-29T03:12:43.305Z,1.10
2022-07-29T03:12:56.777Z,1.00
2022-07-29T03:13:09.136Z,1.00
2022-07-29T03:13:21.260Z,1.13
2022-07-29T03:13:34.162Z,1.23
2022-07-29T03:13:46.013Z,1.30
2022-07-29T03:13:58.021Z,1.30
2022-07-29T03:14:10.549Z,1.10
2022-07-29T03:14:25.174Z,1.10
2022-07-29T03:14:37.916Z,1.23
2022-07-29T03:14:50.707Z,1.17
2022-07-29T03:15:02.629Z,1.10
2022-07-29T03:15:14.938Z,1.10
2022-07-29T03:15:27.239Z,1.10
2022-07-29T03:15:39.416Z,1.13
2022-07-29T03:15:51.420Z,1.20
2022-07-29T03:16:03.827Z,1.10
2022-07-29T03:16:16.394Z,1.15
2022-07-29T03:16:28.556Z,1.25
2022-07-29T03:16:41.383Z,1.30
2022-07-29T03:16:53.383Z,1.05
2022-07-29T03:17:05.561Z,1.10
2022-07-29T03:17:18.308Z,1.17
2022-07-29T03:17:31.737Z,1.17
2022-07-29T03:17:44.541Z,1.00
2022-07-29T03:17:56.595Z,1.10
2022-07-29T03:18:08.532Z,1.20
2022-07-29T03:18:20.126Z,1.10